createdAt,value
2022-08-20T00:00:40.843Z,18.82
2022-08-20T00:03:10.387Z,18.66
2022-08-20T00:05:43.310Z,18.67
2022-08-20T00:08:10.702Z,18.70
2022-08-20T00:10:39.975Z,18.74
2022-08-20T00:13:10.746Z,18.82
2022-08-20T00:15:42.885Z,18.63
2022-08-20T00:18:12.713Z,18.63
2022-08-20T00:20:45.112Z,18.59
2022-08-20T00:23:12.258Z,18.61
2022-08-20T00:25:39.607Z,18.59
2022-08-20T00:28:07.657Z,18.53
2022-08-20T00:30:36.471Z,18.65
2022-08-20T00:33:08.364Z,18.49
2022-08-20T00:35:40.142Z,18.52
2022-08-20T00:38:06.829Z,18.35
2022-08-20T00:40:41.447Z,18.39
2022-08-20T00:43:28.979Z,18.29
2022-08-20T00:45:56.484Z,18.36
2022-08-20T00:48:26.482Z,18.34
2022-08-20T00:50:56.681Z,18.43
2022-08-20T00:53:26.003Z,18.40
2022-08-20T00:55:52.973Z,18.38
2022-08-20T00:58:19.703Z,18.34
2022-08-20T01:00:47.679Z,18.41
2022-08-20T01:03:17.790Z,18.31
2022-08-20T01:05:48.441Z,18.32
2022-08-20T01:08:18.420Z,18.24
2022-08-20T01:10:48.840Z,18.36
2022-08-20T01:13:22.139Z,18.35
2022-08-20T01:15:51.732Z,18.15
2022-08-20T01:18:24.569Z,18.18
2022-08-20T01:20:55.556Z,18.23
2022-08-20T01:23:45.001Z,18.08
2022-08-20T01:26:36.007Z,18.08
2022-08-20T01:29:08.326Z,18.17
2022-08-20T01:31:38.744Z,18.09
2022-08-20T01:34:11.019Z,18.11
2022-08-20T01:36:46.105Z,18.12
2022-08-20T01:39:17.332Z,18.06
2022-08-20T01:42:00.911Z,17.93
2022-08-20T01:44:28.201Z,17.98
2022-08-20T01:47:07.876Z,18.00
2022-08-20T01:49:35.824Z,18.02
2022-08-20T01:52:08.769Z,17.97
2022-08-20T01:54:35.953Z,18.03
2022-08-20T01:57:10.459Z,18.16
2022-08-20T01:59:37.506Z,17.98
2022-08-20T02:02:07.119Z,18.09
2022-08-20T02:04:34.778Z,18.14
2022-08-20T02:07:04.362Z,18.10
2022-08-20T02:09:39.297Z,18.08
2022-08-20T02:12:08.892Z,18.01
2022-08-20T02:14:44.683Z,18.05
2022-08-20T02:17:13.774Z,17.95
2022-08-20T02:19:52.804Z,17.88
2022-08-20T02:22:29.672Z,17.98
2022-08-20T02:24:56.419Z,18.01
2022-08-20T02:27:23.749Z,18.05
2022-08-20T02:29:52.411Z,18.10
2022-08-20T02:32:24.717Z,18.15
2022-08-20T02:35:03.283Z,18.19
2022-08-20T02:37:30.402Z,18.16
2022-08-20T02:39:57.117Z,18.26
2022-08-20T02:42:23.966Z,18.10
2022-08-20T02:44:50.596Z,18.13
2022-08-20T02:47:17.419Z,17.95
2022-08-20T02:49:45.471Z,17.91
2022-08-20T02:52:12.195Z,18.01
2022-08-20T02:54:39.175Z,18.06
2022-08-20T02:57:06.104Z,18.00
2022-08-20T02:59:33.651Z,18.14
2022-08-20T03:02:01.365Z,18.06
2022-08-20T03:04:31.554Z,17.96
2022-08-20T03:06:59.578Z,18.07
2022-08-20T03:09:26.684Z,18.06
2022-08-20T03:11:53.815Z,18.08
2022-08-20T03:14:20.632Z,18.10
2022-08-20T03:16:47.331Z,18.18
2022-08-20T03:19:14.074Z,18.19
2022-08-20T03:21:40.984Z,18.18
2022-08-20T03:24:07.910Z,18.16
2022-08-20T03:26:35.543Z,18.00
2022-08-20T03:29:02.549Z,18.00
2022-08-20T03:31:29.808Z,17.95
2022-08-20T03:33:56.657Z,17.93
2022-08-20T03:36:28.089Z,17.80
2022-08-20T03:39:01.049Z,17.89
2022-08-20T03:41:28.740Z,17.98
2022-08-20T03:43:55.892Z,17.79
2022-08-20T03:46:23.804Z,17.74
2022-08-20T03:49:00.569Z,17.82
2022-08-20T03:51:31.449Z,17.84
2022-08-20T03:53:58.549Z,17.78
2022-08-20T03:56:26.060Z,17.87
2022-08-20T03:58:54.204Z,17.87
2022-08-20T04:01:44.491Z,17.82
2022-08-20T04:04:12.391Z,17.90
2022-08-20T04:06:40.052Z,17.92
2022-08-20T04:09:07.163Z,17.87
2022-08-20T04:11:37.368Z,17.85
2022-08-20T04:14:04.123Z,17.83
2022-08-20T04:16:33.523Z,17.84
2022-08-20T04:19:02.324Z,17.88
2022-08-20T04:21:32.990Z,17.87
2022-08-20T04:24:00.974Z,17.84
2022-08-20T04:26:27.939Z,17.72
2022-08-20T04:28:55.776Z,17.83
2022-08-20T04:31:25.362Z,17.76
2022-08-20T04:33:52.410Z,17.92
2022-08-20T04:36:19.037Z,17.93
2022-08-20T04:38:49.920Z,18.04
2022-08-20T04:41:23.614Z,18.00
2022-08-20T04:43:55.152Z,17.96
2022-08-20T04:46:26.093Z,18.04
2022-08-20T04:48:53.393Z,18.01
2022-08-20T04:51:23.025Z,18.02
2022-08-20T04:53:53.124Z,18.06
2022-08-20T04:56:28.269Z,18.00
2022-08-20T04:58:57.715Z,18.07
2022-08-20T05:01:26.246Z,18.07
2022-08-20T05:03:54.933Z,18.03
2022-08-20T05:06:25.548Z,18.11
2022-08-20T05:08:54.583Z,18.09
2022-08-20T05:11:34.277Z,18.01
2022-08-20T05:14:08.891Z,18.10
2022-08-20T05:16:38.221Z,18.12
2022-08-20T05:19:06.889Z,18.23
2022-08-20T05:21:34.118Z,18.27
2022-08-20T05:24:00.856Z,18.33
2022-08-20T05:26:28.571Z,18.21
2022-08-20T05:28:58.387Z,18.25
2022-08-20T05:31:31.476Z,18.30
2022-08-20T05:33:59.691Z,18.44
2022-08-20T05:36:26.583Z,18.35
2022-08-20T05:38:54.237Z,18.27
2022-08-20T05:41:28.932Z,18.36
2022-08-20T05:44:03.354Z,18.31
2022-08-20T05:46:31.837Z,18.38
2022-08-20T05:49:00.234Z,18.35
2022-08-20T05:51:28.298Z,18.45
2022-08-20T05:53:58.218Z,18.34
2022-08-20T05:56:26.836Z,18.47
2022-08-20T05:58:53.721Z,18.43
2022-08-20T06:01:20.424Z,18.43
2022-08-20T06:04:06.628Z,18.47
2022-08-20T06:06:46.184Z,18.55
2022-08-20T06:09:30.412Z,18.47
2022-08-20T06:12:06.185Z,18.60
2022-08-20T06:14:34.109Z,18.74
2022-08-20T06:17:10.217Z,18.59
2022-08-20T06:19:40.284Z,18.76
2022-08-20T06:22:18.011Z,18.69
2022-08-20T06:24:48.567Z,18.76
2022-08-20T06:27:17.500Z,18.79
2022-08-20T06:29:44.194Z,18.83
2022-08-20T06:32:11.521Z,18.86
2022-08-20T06:34:38.164Z,18.94
2022-08-20T06:37:30.003Z,18.87
2022-08-20T06:40:07.250Z,18.93
2022-08-20T06:42:34.689Z,18.95
2022-08-20T06:45:06.582Z,19.09
2022-08-20T06:47:36.733Z,19.07
2022-08-20T06:50:03.866Z,18.95
2022-08-20T06:52:52.015Z,19.20
2022-08-20T06:55:20.834Z,19.14
2022-08-20T06:58:00.420Z,19.00
2022-08-20T07:00:28.763Z,19.12
2022-08-20T07:02:56.099Z,19.24
2022-08-20T07:05:22.948Z,19.01
2022-08-20T07:07:51.109Z,19.32
2022-08-20T07:10:20.081Z,19.31
2022-08-20T07:12:47.133Z,19.37
2022-08-20T07:15:14.717Z,19.44
2022-08-20T07:17:42.330Z,19.32
2022-08-20T07:20:15.488Z,19.40
2022-08-20T07:22:43.472Z,19.38
2022-08-20T07:25:14.407Z,19.59
2022-08-20T07:27:43.046Z,19.57
2022-08-20T07:30:55.801Z,19.49
2022-08-20T07:33:23.978Z,19.12
2022-08-20T07:35:51.235Z,19.25
2022-08-20T07:38:24.818Z,19.55
2022-08-20T07:40:59.675Z,19.42
2022-08-20T07:43:26.406Z,19.52
2022-08-20T07:45:58.836Z,19.44
2022-08-20T07:48:32.547Z,19.69
2022-08-20T07:51:05.339Z,19.75
2022-08-20T07:53:35.780Z,19.75
2022-08-20T07:56:08.609Z,19.96
2022-08-20T07:58:36.875Z,20.02
2022-08-20T08:01:06.067Z,19.91
2022-08-20T08:03:40.644Z,20.05
2022-08-20T08:06:29.009Z,20.13
2022-08-20T08:09:10.204Z,19.99
2022-08-20T08:11:46.345Z,20.02
2022-08-20T08:14:23.595Z,19.97
2022-08-20T08:16:51.234Z,19.97
2022-08-20T08:19:18.949Z,20.18
2022-08-20T08:21:45.808Z,20.15
2022-08-20T08:24:16.626Z,20.07
2022-08-20T08:26:50.188Z,19.99
2022-08-20T08:29:17.254Z,20.05
2022-08-20T08:31:44.313Z,19.98
2022-08-20T08:34:12.096Z,20.07
2022-08-20T08:36:39.449Z,19.98
2022-08-20T08:39:06.637Z,20.04
2022-08-20T08:41:37.178Z,20.06
2022-08-20T08:44:13.234Z,19.89
2022-08-20T08:46:43.001Z,19.99
2022-08-20T08:49:13.982Z,19.88
2022-08-20T08:51:45.299Z,20.00
2022-08-20T08:54:18.311Z,19.92
2022-08-20T08:56:49.679Z,19.89
2022-08-20T08:59:18.976Z,19.87
2022-08-20T09:01:54.153Z,19.92
2022-08-20T09:04:31.468Z,19.92
2022-08-20T09:06:58.827Z,19.78
2022-08-20T09:09:32.207Z,20.07
2022-08-20T09:12:10.851Z,20.11
2022-08-20T09:14:38.798Z,20.06
2022-08-20T09:17:06.546Z,20.12
2022-08-20T09:19:33.671Z,20.14
2022-08-20T09:22:08.019Z,20.06
2022-08-20T09:24:34.680Z,20.15
2022-08-20T09:27:01.282Z,20.14
2022-08-20T09:29:27.955Z,20.11
2022-08-20T09:32:13.586Z,20.07
2022-08-20T09:34:44.316Z,20.05
2022-08-20T09:37:11.960Z,20.29
2022-08-20T09:39:38.869Z,20.23
2022-08-20T09:42:17.573Z,20.22
2022-08-20T09:44:44.444Z,20.14
2022-08-20T09:47:11.474Z,20.34
2022-08-20T09:49:38.657Z,20.30
2022-08-20T09:52:09.092Z,20.32
2022-08-20T09:54:37.377Z,20.27
2022-08-20T09:57:06.701Z,20.36
2022-08-20T09:59:35.628Z,20.33
2022-08-20T10:02:02.574Z,20.48
2022-08-20T10:04:29.206Z,20.45
2022-08-20T10:06:56.683Z,20.69
2022-08-20T10:09:23.398Z,20.72
2022-08-20T10:11:50.025Z,20.78
2022-08-20T10:14:16.757Z,20.76
2022-08-20T10:16:43.519Z,20.69
2022-08-20T10:19:10.249Z,20.83
2022-08-20T10:21:39.092Z,20.84
2022-08-20T10:24:06.258Z,20.65
2022-08-20T10:26:33.104Z,20.72
2022-08-20T10:28:59.783Z,20.69
2022-08-20T10:31:26.415Z,20.76
2022-08-20T10:33:53.075Z,20.77
2022-08-20T10:36:19.692Z,20.85
2022-08-20T10:38:46.553Z,20.89
2022-08-20T10:41:13.174Z,20.80
2022-08-20T10:43:39.859Z,21.01
2022-08-20T10:46:07.017Z,21.13
2022-08-20T10:48:33.874Z,21.08
2022-08-20T10:51:00.753Z,21.13
2022-08-20T10:53:27.711Z,21.40
2022-08-20T10:55:55.663Z,21.47
2022-08-20T10:58:23.941Z,21.61
2022-08-20T11:00:51.374Z,21.34
2022-08-20T11:03:18.155Z,21.05
2022-08-20T11:05:44.995Z,21.56
2022-08-20T11:08:11.702Z,21.42
2022-08-20T11:10:39.197Z,21.16
2022-08-20T11:13:08.241Z,21.51
2022-08-20T11:15:37.873Z,21.57
2022-08-20T11:18:05.111Z,21.55
2022-08-20T11:20:32.188Z,21.54
2022-08-20T11:22:59.301Z,21.47
2022-08-20T11:25:26.844Z,21.68
2022-08-20T11:27:56.190Z,21.72
2022-08-20T11:30:29.396Z,21.94
2022-08-20T11:32:57.020Z,21.90
2022-08-20T11:35:42.167Z,21.92
2022-08-20T11:38:11.977Z,21.91
2022-08-20T11:40:38.742Z,21.74
2022-08-20T11:43:20.546Z,21.72
2022-08-20T11:45:50.348Z,21.79
2022-08-20T11:48:18.139Z,21.79
2022-08-20T11:50:45.094Z,21.89
2022-08-20T11:53:11.687Z,21.94
2022-08-20T11:55:38.575Z,21.85
2022-08-20T11:58:06.091Z,21.87
2022-08-20T12:00:34.536Z,22.14
2022-08-20T12:03:04.947Z,22.09
2022-08-20T12:05:32.398Z,22.18
2022-08-20T12:08:01.595Z,22.29
2022-08-20T12:10:30.253Z,22.30
2022-08-20T12:12:57.363Z,22.19
2022-08-20T12:15:25.411Z,22.39
2022-08-20T12:17:52.531Z,22.17
2022-08-20T12:20:19.322Z,22.36
2022-08-20T12:22:45.963Z,22.03
2022-08-20T12:25:13.448Z,22.19
2022-08-20T12:27:40.251Z,22.43
2022-08-20T12:30:14.267Z,22.51
2022-08-20T12:32:42.388Z,22.44
2022-08-20T12:35:10.572Z,22.46
2022-08-20T12:37:37.795Z,22.45
2022-08-20T12:40:07.778Z,22.48
2022-08-20T12:42:34.442Z,22.32
2022-08-20T12:45:01.629Z,22.28
2022-08-20T12:47:34.245Z,22.40
2022-08-20T12:50:05.714Z,22.42
2022-08-20T12:52:32.691Z,22.51
2022-08-20T12:55:00.022Z,22.45
2022-08-20T12:57:28.804Z,22.57
2022-08-20T13:00:09.995Z,22.55
2022-08-20T13:02:38.674Z,22.15
2022-08-20T13:05:06.227Z,22.44
2022-08-20T13:07:33.941Z,22.61
2022-08-20T13:10:01.249Z,22.54
2022-08-20T13:12:28.849Z,22.79
2022-08-20T13:14:55.558Z,22.63
2022-08-20T13:17:38.156Z,22.77
2022-08-20T13:20:09.573Z,22.39
2022-08-20T13:22:36.620Z,22.66
2022-08-20T13:25:04.373Z,22.84
2022-08-20T13:27:30.958Z,22.61
2022-08-20T13:29:59.061Z,22.84
2022-08-20T13:32:26.729Z,22.85
2022-08-20T13:34:54.033Z,23.00
2022-08-20T13:37:26.232Z,23.05
2022-08-20T13:39:54.023Z,23.04
2022-08-20T13:42:21.437Z,23.32
2022-08-20T13:44:48.822Z,23.14
2022-08-20T13:47:35.228Z,23.02
2022-08-20T13:50:15.439Z,23.15
2022-08-20T13:52:43.102Z,23.07
2022-08-20T13:55:12.625Z,22.89
2022-08-20T13:57:41.219Z,23.20
2022-08-20T14:00:14.210Z,22.98
2022-08-20T14:02:42.294Z,23.10
2022-08-20T14:05:10.436Z,23.11
2022-08-20T14:07:38.190Z,23.09
2022-08-20T14:10:09.634Z,23.11
2022-08-20T14:12:38.013Z,23.15
2022-08-20T14:15:05.507Z,23.01
2022-08-20T14:17:36.121Z,23.10
2022-08-20T14:20:08.607Z,23.12
2022-08-20T14:22:36.851Z,23.40
2022-08-20T14:25:05.389Z,23.39
2022-08-20T14:27:33.853Z,23.34
2022-08-20T14:30:01.561Z,23.46
2022-08-20T14:32:28.400Z,23.44
2022-08-20T14:34:59.314Z,23.38
2022-08-20T14:37:29.859Z,23.45
2022-08-20T14:39:59.501Z,23.34
2022-08-20T14:42:29.417Z,23.36
2022-08-20T14:44:57.731Z,23.43
2022-08-20T14:47:26.886Z,23.47
2022-08-20T14:49:55.450Z,23.44
2022-08-20T14:52:23.510Z,23.56
2022-08-20T14:54:55.414Z,23.28
2022-08-20T14:57:22.478Z,23.21
2022-08-20T14:59:52.915Z,23.25
2022-08-20T15:02:19.515Z,23.23
2022-08-20T15:04:53.905Z,23.28
2022-08-20T15:07:32.513Z,23.17
2022-08-20T15:10:00.632Z,23.28
2022-08-20T15:12:29.044Z,23.23
2022-08-20T15:14:55.665Z,23.15
2022-08-20T15:17:30.155Z,23.00
2022-08-20T15:19:57.707Z,23.27
2022-08-20T15:22:25.806Z,23.27
2022-08-20T15:24:57.642Z,22.94
2022-08-20T15:27:25.557Z,22.92
2022-08-20T15:29:53.082Z,23.12
2022-08-20T15:32:20.815Z,22.95
2022-08-20T15:34:48.197Z,22.81
2022-08-20T15:37:17.965Z,22.59
2022-08-20T15:39:45.671Z,22.87
2022-08-20T15:42:13.644Z,22.86
2022-08-20T15:44:41.474Z,22.76
2022-08-20T15:47:22.415Z,22.84
2022-08-20T15:49:55.148Z,22.90
2022-08-20T15:52:23.154Z,22.94
2022-08-20T15:54:49.877Z,22.82
2022-08-20T15:58:14.073Z,22.68
2022-08-20T16:00:44.405Z,22.72
2022-08-20T16:03:39.179Z,22.44
2022-08-20T16:06:24.769Z,22.47
2022-08-20T16:09:32.866Z,22.40
2022-08-20T16:12:16.312Z,22.08
2022-08-20T16:14:47.279Z,22.00
2022-08-20T16:17:19.143Z,21.55
2022-08-20T16:20:10.835Z,21.28
2022-08-20T16:22:43.760Z,21.72
2022-08-20T16:25:12.519Z,21.66
2022-08-20T16:27:54.311Z,21.37
2022-08-20T16:30:36.486Z,20.98
2022-08-20T16:33:39.268Z,21.04
2022-08-20T16:36:34.815Z,21.19
2022-08-20T16:39:05.760Z,21.24
2022-08-20T16:41:39.755Z,21.19
2022-08-20T16:44:20.568Z,21.14
2022-08-20T16:46:53.310Z,20.81
2022-08-20T16:49:22.479Z,21.07
2022-08-20T16:51:53.105Z,21.07
2022-08-20T16:54:29.572Z,20.95
2022-08-20T16:57:06.924Z,20.68
2022-08-20T16:59:34.073Z,20.84
2022-08-20T17:02:10.303Z,20.85
2022-08-20T17:04:53.308Z,20.89
2022-08-20T17:07:40.363Z,20.89
2022-08-20T17:10:20.063Z,20.89
2022-08-20T17:12:52.456Z,20.91
2022-08-20T17:15:22.900Z,20.69
2022-08-20T17:17:49.471Z,20.80
2022-08-20T17:20:20.382Z,20.64
2022-08-20T17:22:52.107Z,20.55
2022-08-20T17:25:31.346Z,20.41
2022-08-20T17:28:00.455Z,20.58
2022-08-20T17:30:35.717Z,20.65
2022-08-20T17:33:19.409Z,20.59
2022-08-20T17:35:53.781Z,20.61
2022-08-20T17:38:58.021Z,20.65
2022-08-20T17:41:32.414Z,20.67
2022-08-20T17:44:05.817Z,20.68
2022-08-20T17:46:52.724Z,20.35
2022-08-20T17:49:30.710Z,20.28
2022-08-20T17:51:58.068Z,20.36
2022-08-20T17:54:32.804Z,20.40
2022-08-20T17:57:07.187Z,20.36
2022-08-20T18:00:01.604Z,20.36
2022-08-20T18:02:37.082Z,20.33
2022-08-20T18:05:10.181Z,20.25
2022-08-20T18:07:42.711Z,20.12
2022-08-20T18:10:20.924Z,20.14
2022-08-20T18:13:00.794Z,20.15
2022-08-20T18:15:45.183Z,19.91
2022-08-20T18:18:30.624Z,19.90
2022-08-20T18:21:12.575Z,19.90
2022-08-20T18:23:48.872Z,19.83
2022-08-20T18:26:34.877Z,19.99
2022-08-20T18:29:34.137Z,19.64
2022-08-20T18:32:07.530Z,19.81
2022-08-20T18:34:43.794Z,19.84
2022-08-20T18:37:14.146Z,19.83
2022-08-20T18:39:46.080Z,19.78
2022-08-20T18:42:37.291Z,19.82
2022-08-20T18:45:05.285Z,19.87
2022-08-20T18:47:35.143Z,19.93
2022-08-20T18:50:20.776Z,19.90
2022-08-20T18:53:07.006Z,19.89
2022-08-20T18:55:56.057Z,19.98
2022-08-20T18:58:34.216Z,19.92
2022-08-20T19:01:03.819Z,19.91
2022-08-20T19:03:39.406Z,19.94
2022-08-20T19:06:18.155Z,20.00
2022-08-20T19:08:56.867Z,19.88
2022-08-20T19:11:48.517Z,19.96
2022-08-20T19:14:36.884Z,19.89
2022-08-20T19:17:16.451Z,19.97
2022-08-20T19:19:43.704Z,20.04
2022-08-20T19:22:13.290Z,19.95
2022-08-20T19:24:44.379Z,19.83
2022-08-20T19:27:12.751Z,19.83
2022-08-20T19:29:49.429Z,19.79
2022-08-20T19:32:29.026Z,19.71
2022-08-20T19:35:07.523Z,19.58
2022-08-20T19:37:51.633Z,19.72
2022-08-20T19:40:28.670Z,19.61
2022-08-20T19:42:59.416Z,19.59
2022-08-20T19:45:46.633Z,19.63
2022-08-20T19:48:29.216Z,19.59
2022-08-20T19:51:08.050Z,19.49
2022-08-20T19:53:37.250Z,19.60
2022-08-20T19:56:13.313Z,19.63
2022-08-20T19:58:41.227Z,19.68
2022-08-20T20:01:20.986Z,19.59
2022-08-20T20:03:58.012Z,19.76
2022-08-20T20:06:26.964Z,19.82
2022-08-20T20:09:01.462Z,19.77
2022-08-20T20:11:35.771Z,19.74
2022-08-20T20:14:07.904Z,19.73
2022-08-20T20:16:35.934Z,19.52
2022-08-20T20:19:25.196Z,19.52
2022-08-20T20:22:04.989Z,19.57
2022-08-20T20:24:45.050Z,19.62
2022-08-20T20:27:21.589Z,19.66
2022-08-20T20:29:48.868Z,19.64
2022-08-20T20:32:20.852Z,19.60
2022-08-20T20:34:59.229Z,19.58
2022-08-20T20:37:48.834Z,19.61
2022-08-20T20:40:25.782Z,19.38
2022-08-20T20:43:01.289Z,19.61
2022-08-20T20:45:37.906Z,19.59
2022-08-20T20:48:27.363Z,19.53
2022-08-20T20:50:59.663Z,19.61
2022-08-20T20:53:51.308Z,19.52
2022-08-20T20:56:42.269Z,19.47
2022-08-20T20:59:10.414Z,19.50
2022-08-20T21:01:48.811Z,19.51
2022-08-20T21:04:17.206Z,19.57
2022-08-20T21:06:44.044Z,19.55
2022-08-20T21:09:10.788Z,19.53
2022-08-20T21:11:37.457Z,19.50
2022-08-20T21:14:04.268Z,19.48
2022-08-20T21:16:30.937Z,19.34
2022-08-20T21:18:58.425Z,19.34
2022-08-20T21:21:25.300Z,19.35
2022-08-20T21:23:51.949Z,19.31
2022-08-20T21:26:18.773Z,19.29
2022-08-20T21:28:45.471Z,19.19
2022-08-20T21:31:12.261Z,19.00
2022-08-20T21:33:39.069Z,19.13
2022-08-20T21:36:06.741Z,19.13
2022-08-20T21:38:33.368Z,19.14
2022-08-20T21:40:59.958Z,19.09
2022-08-20T21:43:26.972Z,19.02
2022-08-20T21:46:01.487Z,18.97
2022-08-20T21:48:29.062Z,18.96
2022-08-20T21:50:55.644Z,19.03
2022-08-20T21:53:23.005Z,19.03
2022-08-20T21:55:49.798Z,19.00
2022-08-20T21:58:16.670Z,18.93
2022-08-20T22:00:56.927Z,18.75
2022-08-20T22:03:27.328Z,18.76
2022-08-20T22:05:55.290Z,18.77
2022-08-20T22:08:26.142Z,18.84
2022-08-20T22:10:55.233Z,18.89
2022-08-20T22:13:22.798Z,18.91
2022-08-20T22:15:49.538Z,18.85
2022-08-20T22:18:17.320Z,18.85
2022-08-20T22:20:45.590Z,18.89
2022-08-20T22:23:12.569Z,18.68
2022-08-20T22:25:40.119Z,18.56
2022-08-20T22:28:07.126Z,18.67
2022-08-20T22:30:38.390Z,18.70
2022-08-20T22:33:12.823Z,18.72
2022-08-20T22:35:45.030Z,18.57
2022-08-20T22:38:11.660Z,18.62
2022-08-20T22:40:38.262Z,18.52
2022-08-20T22:43:04.873Z,18.43
2022-08-20T22:45:32.085Z,18.51
2022-08-20T22:47:59.747Z,18.54
2022-08-20T22:50:26.389Z,18.55
2022-08-20T22:52:53.578Z,18.59
2022-08-20T22:55:20.501Z,18.56
2022-08-20T22:57:47.569Z,18.59
2022-08-20T23:00:17.370Z,18.59
2022-08-20T23:02:49.755Z,18.62
2022-08-20T23:05:22.402Z,18.45
2022-08-20T23:07:53.823Z,18.42
2022-08-20T23:10:21.235Z,18.56
2022-08-20T23:12:47.944Z,18.56
2022-08-20T23:15:15.253Z,18.55
2022-08-20T23:17:41.939Z,18.50
2022-08-20T23:20:12.236Z,18.42
2022-08-20T23:22:39.153Z,18.40
2022-08-20T23:25:08.136Z,18.34
2022-08-20T23:27:41.444Z,18.21
2022-08-20T23:30:08.837Z,18.10
2022-08-20T23:32:35.522Z,18.22
2022-08-20T23:35:02.953Z,18.24
2022-08-20T23:37:29.635Z,18.38
2022-08-20T23:39:56.330Z,18.22
2022-08-20T23:42:23.183Z,18.18
2022-08-20T23:44:49.777Z,18.05
2022-08-20T23:47:20.009Z,17.98
2022-08-20T23:49:46.786Z,18.08
2022-08-20T23:52:13.508Z,18.09
2022-08-20T23:54:40.974Z,18.04
2022-08-20T23:57:08.378Z,17.99
2022-08-20T23:59:35.902Z,17.96
